sensor_id;sensor_type;location;lat;lon;timestamp;P1;durP1;ratioP1;P2;durP2;ratioP2
9720;SDS011;4899;42.644;23.366;2023-03-31T00:02:03;3.97;;;3.17;;
9720;SDS011;4899;42.644;23.366;2023-03-31T00:04:40;5.23;;;3.70;;
9720;SDS011;4899;42.644;23.366;2023-03-31T00:07:11;6.60;;;3.10;;
9720;SDS011;4899;42.644;23.366;2023-03-31T00:09:38;4.53;;;3.30;;
9720;SDS011;4899;42.644;23.366;2023-03-31T00:12:06;5.20;;;3.33;;
9720;SDS011;4899;42.644;23.366;2023-03-31T00:14:31;6.73;;;5.57;;
9720;SDS011;4899;42.644;23.366;2023-03-31T00:16:57;4.43;;;3.70;;
9720;SDS011;4899;42.644;23.366;2023-03-31T00:19:22;7.20;;;3.70;;
9720;SDS011;4899;42.644;23.366;2023-03-31T00:21:48;3.93;;;3.53;;
9720;SDS011;4899;42.644;23.366;2023-03-31T00:24:15;4.60;;;3.70;;
9720;SDS011;4899;42.644;23.366;2023-03-31T00:26:42;3.93;;;2.53;;
9720;SDS011;4899;42.644;23.366;2023-03-31T00:29:08;7.07;;;3.10;;
9720;SDS011;4899;42.644;23.366;2023-03-31T00:31:36;4.80;;;3.23;;
9720;SDS011;4899;42.644;23.366;2023-03-31T00:34:04;6.03;;;3.73;;
9720;SDS011;4899;42.644;23.366;2023-03-31T00:36:30;6.53;;;3.73;;
9720;SDS011;4899;42.644;23.366;2023-03-31T00:38:59;5.90;;;3.33;;
9720;SDS011;4899;42.644;23.366;2023-03-31T00:41:28;4.57;;;2.73;;
9720;SDS011;4899;42.644;23.366;2023-03-31T00:46:40;6.43;;;2.70;;
9720;SDS011;4899;42.644;23.366;2023-03-31T00:49:26;7.57;;;2.70;;
9720;SDS011;4899;42.644;23.366;2023-03-31T00:51:56;4.57;;;2.70;;
9720;SDS011;4899;42.644;23.366;2023-03-31T00:54:26;3.87;;;2.80;;
9720;SDS011;4899;42.644;23.366;2023-03-31T00:56:54;4.00;;;2.70;;
9720;SDS011;4899;42.644;23.366;2023-03-31T00:59:23;3.90;;;2.60;;
9720;SDS011;4899;42.644;23.366;2023-03-31T01:01:52;3.77;;;2.60;;
9720;SDS011;4899;42.644;23.366;2023-03-31T01:04:23;6.03;;;2.97;;
9720;SDS011;4899;42.644;23.366;2023-03-31T01:06:54;4.50;;;3.03;;
9720;SDS011;4899;42.644;23.366;2023-03-31T01:09:29;4.00;;;3.10;;
9720;SDS011;4899;42.644;23.366;2023-03-31T01:11:59;5.43;;;3.70;;
9720;SDS011;4899;42.644;23.366;2023-03-31T01:14:26;6.40;;;3.50;;
9720;SDS011;4899;42.644;23.366;2023-03-31T01:16:52;6.47;;;3.10;;
9720;SDS011;4899;42.644;23.366;2023-03-31T01:19:21;5.73;;;3.63;;
9720;SDS011;4899;42.644;23.366;2023-03-31T01:22:09;6.03;;;3.77;;
9720;SDS011;4899;42.644;23.366;2023-03-31T01:27:57;5.13;;;3.40;;
9720;SDS011;4899;42.644;23.366;2023-03-31T01:44:28;4.70;;;3.13;;
9720;SDS011;4899;42.644;23.366;2023-03-31T01:50:10;9.63;;;6.23;;
9720;SDS011;4899;42.644;23.366;2023-03-31T01:52:55;9.23;;;6.00;;
9720;SDS011;4899;42.644;23.366;2023-03-31T01:55:34;7.43;;;5.07;;
9720;SDS011;4899;42.644;23.366;2023-03-31T01:58:11;9.07;;;4.67;;
9720;SDS011;4899;42.644;23.366;2023-03-31T02:00:46;6.90;;;4.83;;
9720;SDS011;4899;42.644;23.366;2023-03-31T02:03:26;9.17;;;4.87;;
9720;SDS011;4899;42.644;23.366;2023-03-31T02:05:54;8.60;;;5.10;;
9720;SDS011;4899;42.644;23.366;2023-03-31T02:08:24;13.63;;;4.93;;
9720;SDS011;4899;42.644;23.366;2023-03-31T02:10:55;7.20;;;4.33;;
9720;SDS011;4899;42.644;23.366;2023-03-31T02:13:23;6.17;;;4.07;;
9720;SDS011;4899;42.644;23.366;2023-03-31T02:15:52;11.13;;;6.30;;
9720;SDS011;4899;42.644;23.366;2023-03-31T02:18:23;9.20;;;6.10;;
9720;SDS011;4899;42.644;23.366;2023-03-31T02:20:51;12.00;;;6.87;;
9720;SDS011;4899;42.644;23.366;2023-03-31T02:23:22;10.67;;;6.70;;
9720;SDS011;4899;42.644;23.366;2023-03-31T02:25:54;7.03;;;4.40;;
9720;SDS011;4899;42.644;23.366;2023-03-31T02:28:26;12.63;;;6.00;;
9720;SDS011;4899;42.644;23.366;2023-03-31T02:31:02;9.60;;;6.67;;
9720;SDS011;4899;42.644;23.366;2023-03-31T02:33:37;13.47;;;8.27;;
9720;SDS011;4899;42.644;23.366;2023-03-31T02:36:03;20.60;;;11.37;;
9720;SDS011;4899;42.644;23.366;2023-03-31T02:38:31;13.67;;;8.23;;
9720;SDS011;4899;42.644;23.366;2023-03-31T02:41:03;11.23;;;8.37;;
9720;SDS011;4899;42.644;23.366;2023-03-31T02:43:29;12.60;;;8.27;;
9720;SDS011;4899;42.644;23.366;2023-03-31T02:45:54;16.97;;;9.90;;
9720;SDS011;4899;42.644;23.366;2023-03-31T02:51:19;9.63;;;6.60;;
9720;SDS011;4899;42.644;23.366;2023-03-31T03:07:46;6.43;;;2.80;;
9720;SDS011;4899;42.644;23.366;2023-03-31T03:15:34;2.23;;;2.03;;
9720;SDS011;4899;42.644;23.366;2023-03-31T03:18:07;2.73;;;1.80;;
9720;SDS011;4899;42.644;23.366;2023-03-31T03:20:33;3.77;;;2.27;;
9720;SDS011;4899;42.644;23.366;2023-03-31T03:23:00;5.53;;;2.47;;
9720;SDS011;4899;42.644;23.366;2023-03-31T03:25:25;2.03;;;1.87;;
9720;SDS011;4899;42.644;23.366;2023-03-31T03:27:51;3.67;;;2.13;;
9720;SDS011;4899;42.644;23.366;2023-03-31T03:30:20;3.77;;;2.30;;
9720;SDS011;4899;42.644;23.366;2023-03-31T03:32:45;3.73;;;2.30;;
9720;SDS011;4899;42.644;23.366;2023-03-31T03:35:11;4.00;;;2.00;;
9720;SDS011;4899;42.644;23.366;2023-03-31T03:37:38;4.00;;;2.20;;
9720;SDS011;4899;42.644;23.366;2023-03-31T03:40:04;3.90;;;2.40;;
9720;SDS011;4899;42.644;23.366;2023-03-31T03:42:30;4.87;;;2.57;;
9720;SDS011;4899;42.644;23.366;2023-03-31T03:44:56;3.37;;;2.57;;
9720;SDS011;4899;42.644;23.366;2023-03-31T03:47:22;3.70;;;3.03;;
9720;SDS011;4899;42.644;23.366;2023-03-31T03:49:47;6.20;;;3.57;;
9720;SDS011;4899;42.644;23.366;2023-03-31T03:52:13;4.53;;;2.93;;
9720;SDS011;4899;42.644;23.366;2023-03-31T03:54:39;3.93;;;2.97;;
9720;SDS011;4899;42.644;23.366;2023-03-31T03:57:04;5.20;;;2.87;;
9720;SDS011;4899;42.644;23.366;2023-03-31T03:59:31;4.30;;;3.00;;
9720;SDS011;4899;42.644;23.366;2023-03-31T04:01:57;4.53;;;3.93;;
9720;SDS011;4899;42.644;23.366;2023-03-31T04:04:22;4.03;;;3.03;;
9720;SDS011;4899;42.644;23.366;2023-03-31T04:06:48;7.20;;;3.90;;
9720;SDS011;4899;42.644;23.366;2023-03-31T04:09:14;7.33;;;3.80;;
9720;SDS011;4899;42.644;23.366;2023-03-31T04:11:40;4.63;;;3.90;;
9720;SDS011;4899;42.644;23.366;2023-03-31T04:14:05;4.20;;;3.67;;
9720;SDS011;4899;42.644;23.366;2023-03-31T04:16:30;6.50;;;3.60;;
9720;SDS011;4899;42.644;23.366;2023-03-31T04:18:58;6.60;;;4.10;;
9720;SDS011;4899;42.644;23.366;2023-03-31T04:21:27;5.37;;;4.43;;
9720;SDS011;4899;42.644;23.366;2023-03-31T04:23:54;8.57;;;4.73;;
9720;SDS011;4899;42.644;23.366;2023-03-31T04:26:26;5.00;;;4.40;;
9720;SDS011;4899;42.644;23.366;2023-03-31T04:29:03;7.10;;;4.50;;
9720;SDS011;4899;42.644;23.366;2023-03-31T04:31:30;5.83;;;4.53;;
9720;SDS011;4899;42.644;23.366;2023-03-31T04:33:55;6.13;;;4.40;;
9720;SDS011;4899;42.644;23.366;2023-03-31T04:36:26;5.90;;;4.60;;
9720;SDS011;4899;42.644;23.366;2023-03-31T04:38:53;5.90;;;4.43;;
9720;SDS011;4899;42.644;23.366;2023-03-31T04:41:19;5.40;;;4.37;;
9720;SDS011;4899;42.644;23.366;2023-03-31T04:43:45;7.13;;;4.47;;
9720;SDS011;4899;42.644;23.366;2023-03-31T04:46:12;7.00;;;5.00;;
9720;SDS011;4899;42.644;23.366;2023-03-31T04:48:38;6.57;;;4.33;;
9720;SDS011;4899;42.644;23.366;2023-03-31T04:51:03;6.37;;;4.50;;
9720;SDS011;4899;42.644;23.366;2023-03-31T04:53:29;5.40;;;4.23;;
9720;SDS011;4899;42.644;23.366;2023-03-31T04:55:55;9.67;;;4.53;;
9720;SDS011;4899;42.644;23.366;2023-03-31T04:58:20;7.07;;;4.90;;
9720;SDS011;4899;42.644;23.366;2023-03-31T05:00:46;5.00;;;3.77;;
9720;SDS011;4899;42.644;23.366;2023-03-31T05:03:11;7.57;;;4.23;;
9720;SDS011;4899;42.644;23.366;2023-03-31T05:05:37;5.80;;;3.90;;
9720;SDS011;4899;42.644;23.366;2023-03-31T05:08:03;3.93;;;3.40;;
9720;SDS011;4899;42.644;23.366;2023-03-31T05:10:29;5.17;;;3.60;;
9720;SDS011;4899;42.644;23.366;2023-03-31T05:12:55;5.33;;;4.00;;
9720;SDS011;4899;42.644;23.366;2023-03-31T05:15:21;5.20;;;4.07;;
9720;SDS011;4899;42.644;23.366;2023-03-31T05:17:48;8.07;;;4.40;;
9720;SDS011;4899;42.644;23.366;2023-03-31T05:20:14;6.97;;;4.43;;
9720;SDS011;4899;42.644;23.366;2023-03-31T05:22:40;14.47;;;7.00;;
9720;SDS011;4899;42.644;23.366;2023-03-31T05:25:06;7.83;;;5.00;;
9720;SDS011;4899;42.644;23.366;2023-03-31T05:27:33;5.57;;;4.63;;
9720;SDS011;4899;42.644;23.366;2023-03-31T05:29:59;9.70;;;5.20;;
9720;SDS011;4899;42.644;23.366;2023-03-31T05:32:26;6.60;;;5.13;;
9720;SDS011;4899;42.644;23.366;2023-03-31T05:34:52;7.57;;;5.10;;
9720;SDS011;4899;42.644;23.366;2023-03-31T05:37:21;12.73;;;6.27;;
9720;SDS011;4899;42.644;23.366;2023-03-31T05:39:48;7.20;;;5.00;;
9720;SDS011;4899;42.644;23.366;2023-03-31T05:42:14;7.30;;;5.43;;
9720;SDS011;4899;42.644;23.366;2023-03-31T05:44:41;8.23;;;5.63;;
9720;SDS011;4899;42.644;23.366;2023-03-31T05:47:06;9.40;;;5.87;;
9720;SDS011;4899;42.644;23.366;2023-03-31T05:49:32;8.23;;;5.97;;
9720;SDS011;4899;42.644;23.366;2023-03-31T05:51:57;8.43;;;5.67;;
9720;SDS011;4899;42.644;23.366;2023-03-31T05:54:23;9.13;;;6.07;;
9720;SDS011;4899;42.644;23.366;2023-03-31T05:56:48;8.17;;;5.80;;
9720;SDS011;4899;42.644;23.366;2023-03-31T05:59:13;9.20;;;6.00;;
9720;SDS011;4899;42.644;23.366;2023-03-31T06:01:39;10.30;;;5.63;;
9720;SDS011;4899;42.644;23.366;2023-03-31T06:04:05;8.67;;;6.90;;
9720;SDS011;4899;42.644;23.366;2023-03-31T06:06:30;10.87;;;6.37;;
9720;SDS011;4899;42.644;23.366;2023-03-31T06:08:57;9.43;;;6.60;;
9720;SDS011;4899;42.644;23.366;2023-03-31T06:11:22;14.73;;;6.67;;
9720;SDS011;4899;42.644;23.366;2023-03-31T06:13:48;9.67;;;7.07;;
9720;SDS011;4899;42.644;23.366;2023-03-31T06:16:15;11.40;;;6.77;;
9720;SDS011;4899;42.644;23.366;2023-03-31T06:18:41;12.70;;;7.20;;
9720;SDS011;4899;42.644;23.366;2023-03-31T06:21:10;14.07;;;7.83;;
9720;SDS011;4899;42.644;23.366;2023-03-31T06:23:37;12.60;;;6.93;;
9720;SDS011;4899;42.644;23.366;2023-03-31T06:26:04;11.60;;;7.83;;
9720;SDS011;4899;42.644;23.366;2023-03-31T06:28:32;9.93;;;7.50;;
9720;SDS011;4899;42.644;23.366;2023-03-31T06:31:04;10.93;;;7.93;;
9720;SDS011;4899;42.644;23.366;2023-03-31T06:33:32;11.67;;;6.53;;
9720;SDS011;4899;42.644;23.366;2023-03-31T06:35:58;8.57;;;7.27;;
9720;SDS011;4899;42.644;23.366;2023-03-31T06:38:25;12.77;;;7.50;;
9720;SDS011;4899;42.644;23.366;2023-03-31T06:40:51;11.63;;;6.57;;
9720;SDS011;4899;42.644;23.366;2023-03-31T06:43:17;9.47;;;6.60;;
9720;SDS011;4899;42.644;23.366;2023-03-31T06:45:42;14.40;;;7.73;;
9720;SDS011;4899;42.644;23.366;2023-03-31T06:48:08;11.00;;;6.77;;
9720;SDS011;4899;42.644;23.366;2023-03-31T06:50:36;11.90;;;7.10;;
9720;SDS011;4899;42.644;23.366;2023-03-31T06:53:02;10.57;;;6.23;;
9720;SDS011;4899;42.644;23.366;2023-03-31T06:55:28;13.13;;;7.20;;
9720;SDS011;4899;42.644;23.366;2023-03-31T06:57:54;10.73;;;6.53;;
9720;SDS011;4899;42.644;23.366;2023-03-31T07:00:19;9.10;;;6.07;;
9720;SDS011;4899;42.644;23.366;2023-03-31T07:02:45;8.87;;;6.00;;
9720;SDS011;4899;42.644;23.366;2023-03-31T07:05:10;8.53;;;5.90;;
9720;SDS011;4899;42.644;23.366;2023-03-31T07:07:36;11.23;;;5.37;;
9720;SDS011;4899;42.644;23.366;2023-03-31T07:10:01;9.57;;;6.10;;
9720;SDS011;4899;42.644;23.366;2023-03-31T07:12:27;9.67;;;5.93;;
9720;SDS011;4899;42.644;23.366;2023-03-31T07:14:53;16.00;;;10.90;;
9720;SDS011;4899;42.644;23.366;2023-03-31T07:17:18;10.07;;;6.10;;
9720;SDS011;4899;42.644;23.366;2023-03-31T07:19:44;8.37;;;6.03;;
9720;SDS011;4899;42.644;23.366;2023-03-31T07:22:12;5.20;;;4.70;;
9720;SDS011;4899;42.644;23.366;2023-03-31T07:24:38;9.63;;;5.17;;
9720;SDS011;4899;42.644;23.366;2023-03-31T07:27:04;8.27;;;5.70;;
9720;SDS011;4899;42.644;23.366;2023-03-31T07:29:29;10.77;;;5.57;;
9720;SDS011;4899;42.644;23.366;2023-03-31T07:31:55;13.50;;;5.70;;
9720;SDS011;4899;42.644;23.366;2023-03-31T07:34:20;13.70;;;6.63;;
9720;SDS011;4899;42.644;23.366;2023-03-31T07:36:46;9.93;;;5.53;;
9720;SDS011;4899;42.644;23.366;2023-03-31T07:39:11;9.13;;;5.80;;
9720;SDS011;4899;42.644;23.366;2023-03-31T07:41:37;7.13;;;5.50;;
9720;SDS011;4899;42.644;23.366;2023-03-31T07:44:03;8.37;;;5.23;;
9720;SDS011;4899;42.644;23.366;2023-03-31T07:46:29;7.67;;;5.10;;
9720;SDS011;4899;42.644;23.366;2023-03-31T07:48:55;10.77;;;5.80;;
9720;SDS011;4899;42.644;23.366;2023-03-31T07:51:22;9.43;;;5.87;;
9720;SDS011;4899;42.644;23.366;2023-03-31T07:53:49;8.63;;;5.33;;
9720;SDS011;4899;42.644;23.366;2023-03-31T07:56:16;9.67;;;6.50;;
9720;SDS011;4899;42.644;23.366;2023-03-31T07:58:43;8.00;;;5.60;;
9720;SDS011;4899;42.644;23.366;2023-03-31T08:01:12;7.97;;;4.43;;
9720;SDS011;4899;42.644;23.366;2023-03-31T08:03:42;5.17;;;3.97;;
9720;SDS011;4899;42.644;23.366;2023-03-31T08:06:08;5.97;;;4.90;;
9720;SDS011;4899;42.644;23.366;2023-03-31T08:08:34;7.10;;;4.60;;
9720;SDS011;4899;42.644;23.366;2023-03-31T08:11:02;8.13;;;3.40;;
9720;SDS011;4899;42.644;23.366;2023-03-31T08:13:28;5.43;;;3.70;;
9720;SDS011;4899;42.644;23.366;2023-03-31T08:15:53;4.43;;;3.80;;
9720;SDS011;4899;42.644;23.366;2023-03-31T08:18:19;3.80;;;2.70;;
9720;SDS011;4899;42.644;23.366;2023-03-31T08:20:44;6.00;;;3.17;;
9720;SDS011;4899;42.644;23.366;2023-03-31T08:23:10;5.73;;;3.23;;
9720;SDS011;4899;42.644;23.366;2023-03-31T08:25:36;4.37;;;3.20;;
9720;SDS011;4899;42.644;23.366;2023-03-31T08:28:02;8.07;;;2.40;;
9720;SDS011;4899;42.644;23.366;2023-03-31T08:30:27;8.17;;;2.70;;
9720;SDS011;4899;42.644;23.366;2023-03-31T08:32:53;5.93;;;2.80;;
9720;SDS011;4899;42.644;23.366;2023-03-31T08:35:18;5.50;;;3.03;;
9720;SDS011;4899;42.644;23.366;2023-03-31T08:37:44;6.23;;;2.80;;
9720;SDS011;4899;42.644;23.366;2023-03-31T08:40:19;6.80;;;2.37;;
9720;SDS011;4899;42.644;23.366;2023-03-31T08:42:48;6.67;;;2.57;;
9720;SDS011;4899;42.644;23.366;2023-03-31T08:47:42;5.47;;;2.27;;
9720;SDS011;4899;42.644;23.366;2023-03-31T08:50:13;3.90;;;2.03;;
9720;SDS011;4899;42.644;23.366;2023-03-31T08:52:43;3.23;;;2.23;;
9720;SDS011;4899;42.644;23.366;2023-03-31T08:55:21;5.77;;;2.30;;
9720;SDS011;4899;42.644;23.366;2023-03-31T09:06:58;4.00;;;2.23;;
9720;SDS011;4899;42.644;23.366;2023-03-31T09:12:29;6.77;;;2.53;;
9720;SDS011;4899;42.644;23.366;2023-03-31T09:15:25;4.80;;;2.10;;
9720;SDS011;4899;42.644;23.366;2023-03-31T09:17:54;6.03;;;2.17;;
9720;SDS011;4899;42.644;23.366;2023-03-31T09:20:25;3.23;;;2.37;;
9720;SDS011;4899;42.644;23.366;2023-03-31T09:22:59;7.13;;;2.30;;
9720;SDS011;4899;42.644;23.366;2023-03-31T09:25:46;6.00;;;2.10;;
9720;SDS011;4899;42.644;23.366;2023-03-31T09:28:17;4.10;;;2.40;;
9720;SDS011;4899;42.644;23.366;2023-03-31T09:30:45;3.40;;;1.77;;
9720;SDS011;4899;42.644;23.366;2023-03-31T10:56:55;3.97;;;1.90;;
9720;SDS011;4899;42.644;23.366;2023-03-31T11:02:25;2.57;;;2.00;;
9720;SDS011;4899;42.644;23.366;2023-03-31T11:04:57;5.17;;;2.00;;
9720;SDS011;4899;42.644;23.366;2023-03-31T11:35:04;3.70;;;2.10;;
9720;SDS011;4899;42.644;23.366;2023-03-31T11:37:49;3.37;;;2.00;;
9720;SDS011;4899;42.644;23.366;2023-03-31T11:42:52;3.63;;;1.97;;
9720;SDS011;4899;42.644;23.366;2023-03-31T11:45:31;4.50;;;2.10;;
9720;SDS011;4899;42.644;23.366;2023-03-31T11:49:05;3.73;;;2.37;;
9720;SDS011;4899;42.644;23.366;2023-03-31T11:53:56;4.83;;;2.00;;
9720;SDS011;4899;42.644;23.366;2023-03-31T11:56:24;3.73;;;1.90;;
9720;SDS011;4899;42.644;23.366;2023-03-31T11:58:57;2.27;;;1.77;;
9720;SDS011;4899;42.644;23.366;2023-03-31T12:01:27;6.27;;;2.10;;
9720;SDS011;4899;42.644;23.366;2023-03-31T12:06:48;4.27;;;2.30;;
9720;SDS011;4899;42.644;23.366;2023-03-31T12:12:12;5.97;;;1.90;;
9720;SDS011;4899;42.644;23.366;2023-03-31T12:14:45;4.93;;;2.43;;
9720;SDS011;4899;42.644;23.366;2023-03-31T12:17:30;6.20;;;2.10;;
9720;SDS011;4899;42.644;23.366;2023-03-31T12:19:57;4.20;;;2.17;;
9720;SDS011;4899;42.644;23.366;2023-03-31T12:22:30;5.37;;;1.93;;
9720;SDS011;4899;42.644;23.366;2023-03-31T12:24:58;3.37;;;1.90;;
9720;SDS011;4899;42.644;23.366;2023-03-31T12:32:43;2.87;;;1.67;;
9720;SDS011;4899;42.644;23.366;2023-03-31T12:51:54;7.30;;;2.33;;
9720;SDS011;4899;42.644;23.366;2023-03-31T12:57:41;5.20;;;2.10;;
9720;SDS011;4899;42.644;23.366;2023-03-31T13:02:36;7.30;;;2.80;;
9720;SDS011;4899;42.644;23.366;2023-03-31T13:08:03;4.95;;;2.00;;
9720;SDS011;4899;42.644;23.366;2023-03-31T13:10:30;3.05;;;1.98;;
9720;SDS011;4899;42.644;23.366;2023-03-31T13:13:00;5.53;;;2.15;;
9720;SDS011;4899;42.644;23.366;2023-03-31T13:15:27;3.72;;;2.25;;
9720;SDS011;4899;42.644;23.366;2023-03-31T13:17:58;5.82;;;1.67;;
9720;SDS011;4899;42.644;23.366;2023-03-31T13:20:34;4.78;;;2.10;;
9720;SDS011;4899;42.644;23.366;2023-03-31T13:33:07;5.68;;;2.50;;
9720;SDS011;4899;42.644;23.366;2023-03-31T13:35:40;5.53;;;2.42;;
9720;SDS011;4899;42.644;23.366;2023-03-31T13:38:25;4.78;;;2.10;;
9720;SDS011;4899;42.644;23.366;2023-03-31T14:03:51;6.20;;;2.10;;
9720;SDS011;4899;42.644;23.366;2023-03-31T14:09:03;4.30;;;1.80;;
9720;SDS011;4899;42.644;23.366;2023-03-31T14:11:34;4.53;;;1.93;;
9720;SDS011;4899;42.644;23.366;2023-03-31T14:16:50;5.32;;;2.30;;
9720;SDS011;4899;42.644;23.366;2023-03-31T14:33:16;5.38;;;1.90;;
9720;SDS011;4899;42.644;23.366;2023-03-31T14:38:32;2.90;;;1.85;;
9720;SDS011;4899;42.644;23.366;2023-03-31T14:40:58;3.45;;;1.63;;
9720;SDS011;4899;42.644;23.366;2023-03-31T14:43:28;3.85;;;1.85;;
9720;SDS011;4899;42.644;23.366;2023-03-31T14:45:58;3.58;;;2.10;;
9720;SDS011;4899;42.644;23.366;2023-03-31T14:48:36;4.03;;;2.15;;
9720;SDS011;4899;42.644;23.366;2023-03-31T14:51:09;3.53;;;1.80;;
9720;SDS011;4899;42.644;23.366;2023-03-31T14:53:37;3.47;;;1.90;;
9720;SDS011;4899;42.644;23.366;2023-03-31T14:56:04;3.95;;;2.40;;
9720;SDS011;4899;42.644;23.366;2023-03-31T14:58:37;6.55;;;2.00;;
9720;SDS011;4899;42.644;23.366;2023-03-31T15:01:06;5.00;;;1.90;;
9720;SDS011;4899;42.644;23.366;2023-03-31T15:03:34;2.30;;;2.10;;
9720;SDS011;4899;42.644;23.366;2023-03-31T15:06:02;3.83;;;1.98;;
9720;SDS011;4899;42.644;23.366;2023-03-31T15:08:29;2.28;;;1.92;;
9720;SDS011;4899;42.644;23.366;2023-03-31T15:11:01;4.65;;;2.38;;
9720;SDS011;4899;42.644;23.366;2023-03-31T15:14:02;5.13;;;2.90;;
9720;SDS011;4899;42.644;23.366;2023-03-31T15:16:35;3.88;;;1.85;;
9720;SDS011;4899;42.644;23.366;2023-03-31T15:19:11;4.15;;;2.67;;
9720;SDS011;4899;42.644;23.366;2023-03-31T15:21:39;4.35;;;1.65;;
9720;SDS011;4899;42.644;23.366;2023-03-31T15:24:05;5.47;;;2.00;;
9720;SDS011;4899;42.644;23.366;2023-03-31T15:26:35;7.10;;;2.33;;
9720;SDS011;4899;42.644;23.366;2023-03-31T15:29:11;9.32;;;2.47;;
9720;SDS011;4899;42.644;23.366;2023-03-31T15:31:45;4.18;;;2.03;;
9720;SDS011;4899;42.644;23.366;2023-03-31T15:34:30;5.78;;;3.70;;
9720;SDS011;4899;42.644;23.366;2023-03-31T15:36:58;5.32;;;3.53;;
9720;SDS011;4899;42.644;23.366;2023-03-31T15:39:26;8.52;;;4.43;;
9720;SDS011;4899;42.644;23.366;2023-03-31T15:41:55;5.78;;;2.28;;
9720;SDS011;4899;42.644;23.366;2023-03-31T15:49:52;9.23;;;4.00;;
9720;SDS011;4899;42.644;23.366;2023-03-31T15:52:19;8.17;;;3.40;;
9720;SDS011;4899;42.644;23.366;2023-03-31T15:54:50;4.40;;;3.93;;
9720;SDS011;4899;42.644;23.366;2023-03-31T15:57:16;9.57;;;3.60;;
9720;SDS011;4899;42.644;23.366;2023-03-31T15:59:44;8.13;;;3.93;;
9720;SDS011;4899;42.644;23.366;2023-03-31T16:02:16;9.68;;;7.32;;
9720;SDS011;4899;42.644;23.366;2023-03-31T16:04:48;4.70;;;2.97;;
9720;SDS011;4899;42.644;23.366;2023-03-31T16:07:17;3.80;;;2.60;;
9720;SDS011;4899;42.644;23.366;2023-03-31T16:12:30;5.55;;;3.63;;
9720;SDS011;4899;42.644;23.366;2023-03-31T16:15:04;9.70;;;3.80;;
9720;SDS011;4899;42.644;23.366;2023-03-31T16:17:53;5.37;;;2.93;;
9720;SDS011;4899;42.644;23.366;2023-03-31T16:22:54;7.73;;;5.23;;
9720;SDS011;4899;42.644;23.366;2023-03-31T16:25:24;6.67;;;4.10;;
9720;SDS011;4899;42.644;23.366;2023-03-31T16:27:55;10.63;;;5.40;;
9720;SDS011;4899;42.644;23.366;2023-03-31T16:30:34;7.10;;;4.23;;
9720;SDS011;4899;42.644;23.366;2023-03-31T16:33:03;5.90;;;3.77;;
9720;SDS011;4899;42.644;23.366;2023-03-31T16:35:34;9.17;;;5.07;;
9720;SDS011;4899;42.644;23.366;2023-03-31T16:38:02;9.90;;;6.20;;
9720;SDS011;4899;42.644;23.366;2023-03-31T16:40:29;7.40;;;3.27;;
9720;SDS011;4899;42.644;23.366;2023-03-31T16:43:05;7.83;;;4.20;;
9720;SDS011;4899;42.644;23.366;2023-03-31T16:45:35;8.13;;;4.07;;
9720;SDS011;4899;42.644;23.366;2023-03-31T16:48:01;8.47;;;3.33;;
9720;SDS011;4899;42.644;23.366;2023-03-31T16:50:26;7.20;;;2.70;;
9720;SDS011;4899;42.644;23.366;2023-03-31T16:52:52;10.00;;;3.07;;
9720;SDS011;4899;42.644;23.366;2023-03-31T16:55:17;8.27;;;3.53;;
9720;SDS011;4899;42.644;23.366;2023-03-31T16:57:42;5.67;;;3.23;;
9720;SDS011;4899;42.644;23.366;2023-03-31T17:00:08;9.87;;;4.03;;
9720;SDS011;4899;42.644;23.366;2023-03-31T17:02:34;8.50;;;3.63;;
9720;SDS011;4899;42.644;23.366;2023-03-31T17:05:00;6.70;;;4.53;;
9720;SDS011;4899;42.644;23.366;2023-03-31T17:07:25;6.13;;;3.30;;
9720;SDS011;4899;42.644;23.366;2023-03-31T17:09:51;24.30;;;17.73;;
9720;SDS011;4899;42.644;23.366;2023-03-31T17:12:16;12.80;;;7.23;;
9720;SDS011;4899;42.644;23.366;2023-03-31T17:14:42;7.30;;;4.47;;
9720;SDS011;4899;42.644;23.366;2023-03-31T17:17:07;9.23;;;4.47;;
9720;SDS011;4899;42.644;23.366;2023-03-31T17:19:33;6.17;;;3.80;;
9720;SDS011;4899;42.644;23.366;2023-03-31T17:21:58;7.80;;;4.37;;
9720;SDS011;4899;42.644;23.366;2023-03-31T17:24:27;7.43;;;4.30;;
9720;SDS011;4899;42.644;23.366;2023-03-31T17:26:53;6.57;;;4.20;;
9720;SDS011;4899;42.644;23.366;2023-03-31T17:29:18;8.57;;;3.93;;
9720;SDS011;4899;42.644;23.366;2023-03-31T17:31:44;7.47;;;3.87;;
9720;SDS011;4899;42.644;23.366;2023-03-31T17:34:10;6.40;;;3.73;;
9720;SDS011;4899;42.644;23.366;2023-03-31T17:36:35;6.73;;;4.43;;
9720;SDS011;4899;42.644;23.366;2023-03-31T17:39:01;7.17;;;4.37;;
9720;SDS011;4899;42.644;23.366;2023-03-31T17:41:28;11.90;;;4.97;;
9720;SDS011;4899;42.644;23.366;2023-03-31T17:43:55;13.30;;;4.10;;
9720;SDS011;4899;42.644;23.366;2023-03-31T17:46:21;8.70;;;4.00;;
9720;SDS011;4899;42.644;23.366;2023-03-31T17:48:47;7.03;;;4.30;;
9720;SDS011;4899;42.644;23.366;2023-03-31T17:51:13;5.07;;;3.60;;
9720;SDS011;4899;42.644;23.366;2023-03-31T17:53:41;7.57;;;3.73;;
9720;SDS011;4899;42.644;23.366;2023-03-31T17:56:09;8.53;;;4.43;;
9720;SDS011;4899;42.644;23.366;2023-03-31T17:58:35;9.23;;;4.57;;
9720;SDS011;4899;42.644;23.366;2023-03-31T18:01:02;12.90;;;5.80;;
9720;SDS011;4899;42.644;23.366;2023-03-31T18:03:29;10.73;;;8.70;;
9720;SDS011;4899;42.644;23.366;2023-03-31T18:05:55;9.50;;;5.37;;
9720;SDS011;4899;42.644;23.366;2023-03-31T18:08:21;9.83;;;5.37;;
9720;SDS011;4899;42.644;23.366;2023-03-31T18:10:47;10.50;;;5.60;;
9720;SDS011;4899;42.644;23.366;2023-03-31T18:13:13;7.50;;;5.77;;
9720;SDS011;4899;42.644;23.366;2023-03-31T18:15:44;9.17;;;5.67;;
9720;SDS011;4899;42.644;23.366;2023-03-31T18:18:10;8.37;;;4.53;;
9720;SDS011;4899;42.644;23.366;2023-03-31T18:20:36;11.27;;;5.30;;
9720;SDS011;4899;42.644;23.366;2023-03-31T18:23:01;8.03;;;5.23;;
9720;SDS011;4899;42.644;23.366;2023-03-31T18:25:28;11.17;;;5.50;;
9720;SDS011;4899;42.644;23.366;2023-03-31T18:27:53;9.40;;;6.07;;
9720;SDS011;4899;42.644;23.366;2023-03-31T18:30:18;15.13;;;10.70;;
9720;SDS011;4899;42.644;23.366;2023-03-31T18:32:44;18.57;;;8.60;;
9720;SDS011;4899;42.644;23.366;2023-03-31T18:35:10;16.63;;;7.70;;
9720;SDS011;4899;42.644;23.366;2023-03-31T18:37:36;12.53;;;6.80;;
9720;SDS011;4899;42.644;23.366;2023-03-31T18:40:01;8.03;;;6.27;;
9720;SDS011;4899;42.644;23.366;2023-03-31T18:42:27;10.60;;;6.63;;
9720;SDS011;4899;42.644;23.366;2023-03-31T18:44:53;7.10;;;5.53;;
9720;SDS011;4899;42.644;23.366;2023-03-31T18:47:19;10.37;;;6.37;;
9720;SDS011;4899;42.644;23.366;2023-03-31T18:49:45;16.13;;;7.10;;
9720;SDS011;4899;42.644;23.366;2023-03-31T18:52:17;11.27;;;7.50;;
9720;SDS011;4899;42.644;23.366;2023-03-31T18:54:43;11.17;;;6.07;;
9720;SDS011;4899;42.644;23.366;2023-03-31T18:57:08;11.53;;;5.70;;
9720;SDS011;4899;42.644;23.366;2023-03-31T18:59:36;12.57;;;6.23;;
9720;SDS011;4899;42.644;23.366;2023-03-31T19:02:02;9.10;;;5.77;;
9720;SDS011;4899;42.644;23.366;2023-03-31T19:04:27;8.67;;;4.73;;
9720;SDS011;4899;42.644;23.366;2023-03-31T19:06:54;12.80;;;6.80;;
9720;SDS011;4899;42.644;23.366;2023-03-31T19:09:20;9.03;;;6.50;;
9720;SDS011;4899;42.644;23.366;2023-03-31T19:11:50;11.30;;;5.63;;
9720;SDS011;4899;42.644;23.366;2023-03-31T19:14:16;11.47;;;7.17;;
9720;SDS011;4899;42.644;23.366;2023-03-31T19:16:41;8.73;;;5.60;;
9720;SDS011;4899;42.644;23.366;2023-03-31T19:19:09;12.20;;;7.17;;
9720;SDS011;4899;42.644;23.366;2023-03-31T19:21:35;14.23;;;7.97;;
9720;SDS011;4899;42.644;23.366;2023-03-31T19:24:02;8.73;;;6.77;;
9720;SDS011;4899;42.644;23.366;2023-03-31T19:26:28;9.43;;;5.33;;
9720;SDS011;4899;42.644;23.366;2023-03-31T19:28:54;10.20;;;5.67;;
9720;SDS011;4899;42.644;23.366;2023-03-31T19:31:20;8.43;;;5.20;;
9720;SDS011;4899;42.644;23.366;2023-03-31T19:33:45;8.43;;;6.57;;
9720;SDS011;4899;42.644;23.366;2023-03-31T19:36:11;16.97;;;8.30;;
9720;SDS011;4899;42.644;23.366;2023-03-31T19:38:37;14.17;;;7.00;;
9720;SDS011;4899;42.644;23.366;2023-03-31T19:41:03;11.53;;;6.60;;
9720;SDS011;4899;42.644;23.366;2023-03-31T19:43:31;9.23;;;6.60;;
9720;SDS011;4899;42.644;23.366;2023-03-31T19:45:57;15.07;;;6.50;;
9720;SDS011;4899;42.644;23.366;2023-03-31T19:48:23;9.77;;;6.27;;